sensor_id;sensor_type;location;lat;lon;timestamp;P1;durP1;ratioP1;P2;durP2;ratioP2
57389;SDS011;43217;52.694;6.214;2023-04-24T00:00:54;2.40;;;2.20;;
57389;SDS011;43217;52.694;6.214;2023-04-24T00:03:23;2.13;;;2.03;;
57389;SDS011;43217;52.694;6.214;2023-04-24T00:05:49;2.60;;;2.50;;
57389;SDS011;43217;52.694;6.214;2023-04-24T00:08:16;2.92;;;2.70;;
57389;SDS011;43217;52.694;6.214;2023-04-24T00:10:42;3.25;;;3.05;;
57389;SDS011;43217;52.694;6.214;2023-04-24T00:13:08;3.30;;;3.10;;
57389;SDS011;43217;52.694;6.214;2023-04-24T00:15:33;3.40;;;3.20;;
57389;SDS011;43217;52.694;6.214;2023-04-24T00:17:59;3.80;;;3.60;;
57389;SDS011;43217;52.694;6.214;2023-04-24T00:20:27;3.97;;;3.67;;
57389;SDS011;43217;52.694;6.214;2023-04-24T00:22:54;3.83;;;3.63;;
57389;SDS011;43217;52.694;6.214;2023-04-24T00:25:20;4.30;;;4.00;;
57389;SDS011;43217;52.694;6.214;2023-04-24T00:27:46;4.25;;;3.95;;
57389;SDS011;43217;52.694;6.214;2023-04-24T00:30:12;4.90;;;4.60;;
57389;SDS011;43217;52.694;6.214;2023-04-24T00:32:37;5.00;;;4.60;;
57389;SDS011;43217;52.694;6.214;2023-04-24T00:35:03;5.10;;;4.70;;
57389;SDS011;43217;52.694;6.214;2023-04-24T00:37:30;5.05;;;4.75;;
57389;SDS011;43217;52.694;6.214;2023-04-24T00:39:56;5.90;;;5.50;;
57389;SDS011;43217;52.694;6.214;2023-04-24T00:42:22;5.43;;;5.03;;
57389;SDS011;43217;52.694;6.214;2023-04-24T00:44:48;6.22;;;5.72;;
57389;SDS011;43217;52.694;6.214;2023-04-24T00:47:14;6.90;;;6.40;;
57389;SDS011;43217;52.694;6.214;2023-04-24T00:49:40;7.13;;;6.63;;
57389;SDS011;43217;52.694;6.214;2023-04-24T00:52:05;6.88;;;6.38;;
57389;SDS011;43217;52.694;6.214;2023-04-24T00:54:33;7.10;;;6.60;;
57389;SDS011;43217;52.694;6.214;2023-04-24T00:57:00;8.13;;;7.53;;
57389;SDS011;43217;52.694;6.214;2023-04-24T00:59:27;8.30;;;7.57;;
57389;SDS011;43217;52.694;6.214;2023-04-24T01:01:53;8.40;;;7.70;;
57389;SDS011;43217;52.694;6.214;2023-04-24T01:04:18;7.97;;;7.38;;
57389;SDS011;43217;52.694;6.214;2023-04-24T01:06:45;8.10;;;7.50;;
57389;SDS011;43217;52.694;6.214;2023-04-24T01:09:11;7.85;;;7.25;;
57389;SDS011;43217;52.694;6.214;2023-04-24T01:11:39;8.38;;;7.78;;
57389;SDS011;43217;52.694;6.214;2023-04-24T01:16:32;7.00;;;6.50;;
57389;SDS011;43217;52.694;6.214;2023-04-24T01:18:58;7.55;;;6.95;;
57389;SDS011;43217;52.694;6.214;2023-04-24T01:21:26;7.90;;;7.20;;
57389;SDS011;43217;52.694;6.214;2023-04-24T01:23:54;8.55;;;7.95;;
57389;SDS011;43217;52.694;6.214;2023-04-24T01:26:20;9.32;;;8.70;;
57389;SDS011;43217;52.694;6.214;2023-04-24T01:28:47;8.75;;;8.18;;
57389;SDS011;43217;52.694;6.214;2023-04-24T01:31:13;9.48;;;8.70;;
57389;SDS011;43217;52.694;6.214;2023-04-24T01:33:40;8.02;;;7.53;;
57389;SDS011;43217;52.694;6.214;2023-04-24T01:36:07;7.90;;;7.50;;
57389;SDS011;43217;52.694;6.214;2023-04-24T01:38:35;7.72;;;7.32;;
57389;SDS011;43217;52.694;6.214;2023-04-24T01:41:01;8.18;;;7.63;;
57389;SDS011;43217;52.694;6.214;2023-04-24T01:43:27;8.30;;;7.70;;
57389;SDS011;43217;52.694;6.214;2023-04-24T01:45:53;7.60;;;7.10;;
57389;SDS011;43217;52.694;6.214;2023-04-24T01:48:18;7.07;;;6.68;;
57389;SDS011;43217;52.694;6.214;2023-04-24T01:50:44;7.35;;;6.95;;
57389;SDS011;43217;52.694;6.214;2023-04-24T01:53:10;7.03;;;6.43;;
57389;SDS011;43217;52.694;6.214;2023-04-24T01:55:36;6.13;;;5.72;;
57389;SDS011;43217;52.694;6.214;2023-04-24T01:58:02;6.10;;;5.70;;
57389;SDS011;43217;52.694;6.214;2023-04-24T02:00:27;5.32;;;5.03;;
57389;SDS011;43217;52.694;6.214;2023-04-24T02:02:53;5.20;;;4.90;;
57389;SDS011;43217;52.694;6.214;2023-04-24T02:05:19;5.10;;;4.80;;
57389;SDS011;43217;52.694;6.214;2023-04-24T02:07:44;4.90;;;4.60;;
57389;SDS011;43217;52.694;6.214;2023-04-24T02:10:14;5.32;;;4.93;;
57389;SDS011;43217;52.694;6.214;2023-04-24T02:12:40;4.72;;;4.43;;
57389;SDS011;43217;52.694;6.214;2023-04-24T02:15:05;4.50;;;4.20;;
57389;SDS011;43217;52.694;6.214;2023-04-24T02:17:31;4.28;;;4.07;;
57389;SDS011;43217;52.694;6.214;2023-04-24T02:19:57;4.63;;;4.32;;
57389;SDS011;43217;52.694;6.214;2023-04-24T02:22:22;4.45;;;4.15;;
57389;SDS011;43217;52.694;6.214;2023-04-24T02:24:48;4.25;;;3.95;;
57389;SDS011;43217;52.694;6.214;2023-04-24T02:27:14;4.13;;;3.83;;
57389;SDS011;43217;52.694;6.214;2023-04-24T02:29:40;4.15;;;3.60;;
57389;SDS011;43217;52.694;6.214;2023-04-24T02:32:05;3.50;;;3.30;;
57389;SDS011;43217;52.694;6.214;2023-04-24T02:34:31;3.40;;;3.20;;
57389;SDS011;43217;52.694;6.214;2023-04-24T02:36:56;3.10;;;2.90;;
57389;SDS011;43217;52.694;6.214;2023-04-24T02:39:22;2.63;;;2.53;;
57389;SDS011;43217;52.694;6.214;2023-04-24T02:41:48;2.97;;;2.75;;
57389;SDS011;43217;52.694;6.214;2023-04-24T02:44:14;2.70;;;2.50;;
57389;SDS011;43217;52.694;6.214;2023-04-24T02:46:39;3.00;;;2.80;;
57389;SDS011;43217;52.694;6.214;2023-04-24T02:49:06;3.38;;;3.10;;
57389;SDS011;43217;52.694;6.214;2023-04-24T02:51:32;3.78;;;3.42;;
57389;SDS011;43217;52.694;6.214;2023-04-24T02:53:58;3.72;;;3.42;;
57389;SDS011;43217;52.694;6.214;2023-04-24T02:56:23;3.70;;;3.28;;
57389;SDS011;43217;52.694;6.214;2023-04-24T02:58:49;3.60;;;3.30;;
57389;SDS011;43217;52.694;6.214;2023-04-24T03:01:14;3.25;;;3.05;;
57389;SDS011;43217;52.694;6.214;2023-04-24T03:03:40;3.47;;;3.28;;
57389;SDS011;43217;52.694;6.214;2023-04-24T03:06:06;2.55;;;2.35;;
57389;SDS011;43217;52.694;6.214;2023-04-24T03:08:33;2.50;;;2.30;;
57389;SDS011;43217;52.694;6.214;2023-04-24T03:10:59;2.25;;;2.15;;
57389;SDS011;43217;52.694;6.214;2023-04-24T03:13:25;2.10;;;2.00;;
57389;SDS011;43217;52.694;6.214;2023-04-24T03:15:51;1.73;;;1.58;;
57389;SDS011;43217;52.694;6.214;2023-04-24T03:18:16;2.08;;;1.98;;
57389;SDS011;43217;52.694;6.214;2023-04-24T03:20:42;2.45;;;2.25;;
57389;SDS011;43217;52.694;6.214;2023-04-24T03:23:12;2.38;;;2.20;;
57389;SDS011;43217;52.694;6.214;2023-04-24T03:28:04;1.70;;;1.55;;
57389;SDS011;43217;52.694;6.214;2023-04-24T03:30:29;1.50;;;1.40;;
57389;SDS011;43217;52.694;6.214;2023-04-24T03:32:55;0.98;;;0.98;;
57389;SDS011;43217;52.694;6.214;2023-04-24T03:35:21;0.95;;;0.95;;
57389;SDS011;43217;52.694;6.214;2023-04-24T03:37:47;1.23;;;0.90;;
57389;SDS011;43217;52.694;6.214;2023-04-24T03:40:12;1.13;;;0.90;;
57389;SDS011;43217;52.694;6.214;2023-04-24T03:42:38;1.10;;;0.82;;
57389;SDS011;43217;52.694;6.214;2023-04-24T03:45:04;0.80;;;0.80;;
57389;SDS011;43217;52.694;6.214;2023-04-24T03:47:30;0.70;;;0.70;;
57389;SDS011;43217;52.694;6.214;2023-04-24T03:49:56;1.58;;;0.70;;
57389;SDS011;43217;52.694;6.214;2023-04-24T03:52:21;0.93;;;0.80;;
57389;SDS011;43217;52.694;6.214;2023-04-24T03:54:47;0.70;;;0.70;;
57389;SDS011;43217;52.694;6.214;2023-04-24T03:57:13;1.95;;;1.00;;
57389;SDS011;43217;52.694;6.214;2023-04-24T03:59:38;2.53;;;0.80;;
57389;SDS011;43217;52.694;6.214;2023-04-24T04:02:04;1.85;;;1.08;;
57389;SDS011;43217;52.694;6.214;2023-04-24T04:04:30;1.30;;;1.20;;
57389;SDS011;43217;52.694;6.214;2023-04-24T04:06:55;1.48;;;1.33;;
57389;SDS011;43217;52.694;6.214;2023-04-24T04:09:21;1.30;;;1.20;;
57389;SDS011;43217;52.694;6.214;2023-04-24T04:11:47;3.20;;;1.50;;
57389;SDS011;43217;52.694;6.214;2023-04-24T04:14:13;1.70;;;1.60;;
57389;SDS011;43217;52.694;6.214;2023-04-24T04:16:39;1.63;;;1.40;;
57389;SDS011;43217;52.694;6.214;2023-04-24T04:19:05;1.90;;;1.70;;
57389;SDS011;43217;52.694;6.214;2023-04-24T04:21:31;2.42;;;1.83;;
57389;SDS011;43217;52.694;6.214;2023-04-24T04:23:57;2.20;;;2.00;;
57389;SDS011;43217;52.694;6.214;2023-04-24T04:26:22;2.55;;;1.83;;
57389;SDS011;43217;52.694;6.214;2023-04-24T04:28:52;2.40;;;2.20;;
57389;SDS011;43217;52.694;6.214;2023-04-24T04:31:19;2.60;;;2.13;;
57389;SDS011;43217;52.694;6.214;2023-04-24T04:33:45;2.30;;;2.15;;
57389;SDS011;43217;52.694;6.214;2023-04-24T04:36:10;3.55;;;3.25;;
57389;SDS011;43217;52.694;6.214;2023-04-24T04:38:37;4.35;;;3.72;;
57389;SDS011;43217;52.694;6.214;2023-04-24T04:41:03;5.47;;;4.97;;
57389;SDS011;43217;52.694;6.214;2023-04-24T04:43:28;7.90;;;5.55;;
57389;SDS011;43217;52.694;6.214;2023-04-24T04:45:55;8.45;;;6.88;;
57389;SDS011;43217;52.694;6.214;2023-04-24T04:48:22;7.50;;;6.70;;
57389;SDS011;43217;52.694;6.214;2023-04-24T04:50:48;8.55;;;7.50;;
57389;SDS011;43217;52.694;6.214;2023-04-24T04:53:13;11.25;;;7.60;;
57389;SDS011;43217;52.694;6.214;2023-04-24T04:55:39;8.00;;;6.97;;
57389;SDS011;43217;52.694;6.214;2023-04-24T04:58:05;7.53;;;6.28;;
57389;SDS011;43217;52.694;6.214;2023-04-24T05:00:31;7.72;;;6.75;;
57389;SDS011;43217;52.694;6.214;2023-04-24T05:03:00;7.90;;;7.10;;
57389;SDS011;43217;52.694;6.214;2023-04-24T05:05:26;8.45;;;7.55;;
57389;SDS011;43217;52.694;6.214;2023-04-24T05:10:21;10.40;;;7.43;;
57389;SDS011;43217;52.694;6.214;2023-04-24T05:12:47;7.78;;;6.97;;
57389;SDS011;43217;52.694;6.214;2023-04-24T05:15:14;7.63;;;6.78;;
57389;SDS011;43217;52.694;6.214;2023-04-24T05:17:40;8.93;;;7.65;;
57389;SDS011;43217;52.694;6.214;2023-04-24T05:20:06;8.68;;;7.75;;
57389;SDS011;43217;52.694;6.214;2023-04-24T05:22:32;14.13;;;9.55;;
57389;SDS011;43217;52.694;6.214;2023-04-24T05:25:01;12.18;;;9.50;;
57389;SDS011;43217;52.694;6.214;2023-04-24T05:27:27;11.13;;;9.15;;
57389;SDS011;43217;52.694;6.214;2023-04-24T05:29:58;11.90;;;9.75;;
57389;SDS011;43217;52.694;6.214;2023-04-24T05:32:27;14.82;;;10.10;;
57389;SDS011;43217;52.694;6.214;2023-04-24T05:34:53;15.63;;;11.48;;
57389;SDS011;43217;52.694;6.214;2023-04-24T05:37:19;12.25;;;9.80;;
57389;SDS011;43217;52.694;6.214;2023-04-24T05:39:45;12.57;;;9.80;;
57389;SDS011;43217;52.694;6.214;2023-04-24T05:42:10;11.50;;;9.75;;
57389;SDS011;43217;52.694;6.214;2023-04-24T05:44:36;10.98;;;8.38;;
57389;SDS011;43217;52.694;6.214;2023-04-24T05:47:02;9.27;;;7.47;;
57389;SDS011;43217;52.694;6.214;2023-04-24T05:49:27;11.15;;;9.50;;
57389;SDS011;43217;52.694;6.214;2023-04-24T05:51:53;9.90;;;8.38;;
57389;SDS011;43217;52.694;6.214;2023-04-24T05:54:19;9.25;;;7.65;;
57389;SDS011;43217;52.694;6.214;2023-04-24T05:56:44;8.82;;;7.55;;
57389;SDS011;43217;52.694;6.214;2023-04-24T05:59:10;11.57;;;7.47;;
57389;SDS011;43217;52.694;6.214;2023-04-24T06:01:36;8.55;;;7.57;;
57389;SDS011;43217;52.694;6.214;2023-04-24T06:04:02;7.47;;;6.43;;
57389;SDS011;43217;52.694;6.214;2023-04-24T06:06:28;7.10;;;6.13;;
57389;SDS011;43217;52.694;6.214;2023-04-24T06:08:54;8.20;;;5.78;;
57389;SDS011;43217;52.694;6.214;2023-04-24T06:11:20;8.98;;;6.22;;
57389;SDS011;43217;52.694;6.214;2023-04-24T06:13:46;8.27;;;5.68;;
57389;SDS011;43217;52.694;6.214;2023-04-24T06:16:12;6.82;;;4.95;;
57389;SDS011;43217;52.694;6.214;2023-04-24T06:18:37;9.27;;;5.78;;
57389;SDS011;43217;52.694;6.214;2023-04-24T06:21:04;9.00;;;5.90;;
57389;SDS011;43217;52.694;6.214;2023-04-24T06:23:33;8.88;;;6.03;;
57389;SDS011;43217;52.694;6.214;2023-04-24T06:26:07;9.60;;;6.80;;
57389;SDS011;43217;52.694;6.214;2023-04-24T06:28:33;6.85;;;5.40;;
57389;SDS011;43217;52.694;6.214;2023-04-24T06:33:30;10.02;;;6.88;;
57389;SDS011;43217;52.694;6.214;2023-04-24T06:35:56;8.75;;;7.43;;
57389;SDS011;43217;52.694;6.214;2023-04-24T06:38:21;9.32;;;7.07;;
57389;SDS011;43217;52.694;6.214;2023-04-24T06:40:47;10.48;;;6.95;;
57389;SDS011;43217;52.694;6.214;2023-04-24T06:43:13;11.15;;;7.97;;
57389;SDS011;43217;52.694;6.214;2023-04-24T06:45:42;10.73;;;8.48;;
57389;SDS011;43217;52.694;6.214;2023-04-24T06:48:08;9.75;;;8.70;;
57389;SDS011;43217;52.694;6.214;2023-04-24T06:50:38;10.15;;;8.95;;
57389;SDS011;43217;52.694;6.214;2023-04-24T06:53:03;11.30;;;8.98;;
57389;SDS011;43217;52.694;6.214;2023-04-24T06:55:29;12.70;;;9.43;;
57389;SDS011;43217;52.694;6.214;2023-04-24T06:57:55;11.80;;;9.18;;
57389;SDS011;43217;52.694;6.214;2023-04-24T07:00:20;12.85;;;9.00;;
57389;SDS011;43217;52.694;6.214;2023-04-24T07:02:46;12.82;;;9.15;;
57389;SDS011;43217;52.694;6.214;2023-04-24T07:05:11;13.10;;;9.07;;
57389;SDS011;43217;52.694;6.214;2023-04-24T07:10:43;8.75;;;7.85;;
57389;SDS011;43217;52.694;6.214;2023-04-24T07:13:15;10.45;;;8.38;;
57389;SDS011;43217;52.694;6.214;2023-04-24T07:15:40;10.65;;;7.97;;
57389;SDS011;43217;52.694;6.214;2023-04-24T07:18:06;11.02;;;8.20;;
57389;SDS011;43217;52.694;6.214;2023-04-24T07:20:32;9.27;;;8.05;;
57389;SDS011;43217;52.694;6.214;2023-04-24T07:22:58;8.30;;;7.10;;
57389;SDS011;43217;52.694;6.214;2023-04-24T07:25:23;10.10;;;7.45;;
57389;SDS011;43217;52.694;6.214;2023-04-24T07:27:49;9.48;;;7.10;;
57389;SDS011;43217;52.694;6.214;2023-04-24T07:30:15;9.45;;;7.10;;
57389;SDS011;43217;52.694;6.214;2023-04-24T07:32:40;8.15;;;6.82;;
57389;SDS011;43217;52.694;6.214;2023-04-24T07:35:06;8.23;;;6.55;;
57389;SDS011;43217;52.694;6.214;2023-04-24T07:37:32;6.63;;;5.82;;
57389;SDS011;43217;52.694;6.214;2023-04-24T07:39:57;7.78;;;5.65;;
57389;SDS011;43217;52.694;6.214;2023-04-24T07:42:23;7.28;;;5.25;;
57389;SDS011;43217;52.694;6.214;2023-04-24T07:44:49;7.45;;;6.53;;
57389;SDS011;43217;52.694;6.214;2023-04-24T07:47:16;10.87;;;8.03;;
57389;SDS011;43217;52.694;6.214;2023-04-24T07:49:41;14.60;;;9.20;;
57389;SDS011;43217;52.694;6.214;2023-04-24T07:52:07;14.02;;;9.95;;
57389;SDS011;43217;52.694;6.214;2023-04-24T07:54:33;16.10;;;10.73;;
57389;SDS011;43217;52.694;6.214;2023-04-24T07:56:59;17.00;;;12.88;;
57389;SDS011;43217;52.694;6.214;2023-04-24T08:01:56;21.65;;;16.52;;
57389;SDS011;43217;52.694;6.214;2023-04-24T08:04:22;26.08;;;17.70;;
57389;SDS011;43217;52.694;6.214;2023-04-24T08:06:47;30.85;;;19.92;;
57389;SDS011;43217;52.694;6.214;2023-04-24T08:09:13;30.60;;;21.15;;
57389;SDS011;43217;52.694;6.214;2023-04-24T08:11:39;29.77;;;19.65;;
57389;SDS011;43217;52.694;6.214;2023-04-24T08:14:04;28.70;;;19.45;;
57389;SDS011;43217;52.694;6.214;2023-04-24T08:16:30;27.98;;;19.02;;
57389;SDS011;43217;52.694;6.214;2023-04-24T08:18:57;29.88;;;20.10;;
57389;SDS011;43217;52.694;6.214;2023-04-24T08:21:23;25.50;;;19.25;;
57389;SDS011;43217;52.694;6.214;2023-04-24T08:23:49;28.20;;;21.05;;
57389;SDS011;43217;52.694;6.214;2023-04-24T08:26:17;31.42;;;20.27;;
57389;SDS011;43217;52.694;6.214;2023-04-24T08:31:09;26.25;;;19.70;;
57389;SDS011;43217;52.694;6.214;2023-04-24T08:33:37;28.00;;;20.05;;
57389;SDS011;43217;52.694;6.214;2023-04-24T08:38:29;25.88;;;19.60;;
57389;SDS011;43217;52.694;6.214;2023-04-24T08:40:55;23.67;;;19.23;;
57389;SDS011;43217;52.694;6.214;2023-04-24T08:43:23;22.23;;;18.60;;
57389;SDS011;43217;52.694;6.214;2023-04-24T08:45:49;22.80;;;18.17;;
57389;SDS011;43217;52.694;6.214;2023-04-24T08:48:15;18.92;;;16.88;;
57389;SDS011;43217;52.694;6.214;2023-04-24T08:50:42;22.47;;;16.00;;
57389;SDS011;43217;52.694;6.214;2023-04-24T08:53:09;21.23;;;16.42;;
57389;SDS011;43217;52.694;6.214;2023-04-24T08:55:35;20.45;;;15.55;;
57389;SDS011;43217;52.694;6.214;2023-04-24T08:58:02;19.10;;;14.93;;
57389;SDS011;43217;52.694;6.214;2023-04-24T09:00:28;17.35;;;13.55;;
57389;SDS011;43217;52.694;6.214;2023-04-24T09:02:54;18.83;;;14.25;;
57389;SDS011;43217;52.694;6.214;2023-04-24T09:05:21;18.97;;;14.00;;
57389;SDS011;43217;52.694;6.214;2023-04-24T09:10:22;17.98;;;13.93;;
57389;SDS011;43217;52.694;6.214;2023-04-24T09:12:49;19.23;;;14.70;;
57389;SDS011;43217;52.694;6.214;2023-04-24T09:15:16;21.25;;;14.98;;
57389;SDS011;43217;52.694;6.214;2023-04-24T09:17:43;18.67;;;14.52;;
57389;SDS011;43217;52.694;6.214;2023-04-24T09:20:09;17.15;;;12.73;;
57389;SDS011;43217;52.694;6.214;2023-04-24T09:22:37;17.75;;;12.60;;
57389;SDS011;43217;52.694;6.214;2023-04-24T09:25:05;14.57;;;10.82;;
57389;SDS011;43217;52.694;6.214;2023-04-24T09:27:35;14.52;;;9.73;;
57389;SDS011;43217;52.694;6.214;2023-04-24T09:30:01;13.40;;;9.57;;
57389;SDS011;43217;52.694;6.214;2023-04-24T09:32:27;12.48;;;8.75;;
57389;SDS011;43217;52.694;6.214;2023-04-24T09:35:14;11.68;;;7.55;;
57389;SDS011;43217;52.694;6.214;2023-04-24T09:40:18;10.48;;;7.85;;
57389;SDS011;43217;52.694;6.214;2023-04-24T09:42:52;12.90;;;7.88;;
57389;SDS011;43217;52.694;6.214;2023-04-24T09:45:35;12.23;;;7.70;;
57389;SDS011;43217;52.694;6.214;2023-04-24T09:48:02;11.45;;;7.18;;
57389;SDS011;43217;52.694;6.214;2023-04-24T09:50:29;8.65;;;7.30;;
57389;SDS011;43217;52.694;6.214;2023-04-24T09:52:57;13.88;;;7.40;;
57389;SDS011;43217;52.694;6.214;2023-04-24T09:55:26;10.98;;;6.45;;
57389;SDS011;43217;52.694;6.214;2023-04-24T09:57:54;11.07;;;5.27;;
57389;SDS011;43217;52.694;6.214;2023-04-24T10:00:22;10.02;;;4.78;;
57389;SDS011;43217;52.694;6.214;2023-04-24T10:05:32;6.47;;;3.80;;
57389;SDS011;43217;52.694;6.214;2023-04-24T10:08:03;8.57;;;4.07;;
57389;SDS011;43217;52.694;6.214;2023-04-24T10:10:35;11.88;;;4.63;;
57389;SDS011;43217;52.694;6.214;2023-04-24T10:13:03;8.65;;;4.25;;
57389;SDS011;43217;52.694;6.214;2023-04-24T10:15:29;7.68;;;3.88;;
57389;SDS011;43217;52.694;6.214;2023-04-24T10:17:55;8.90;;;4.40;;
57389;SDS011;43217;52.694;6.214;2023-04-24T10:22:53;7.78;;;4.20;;
57389;SDS011;43217;52.694;6.214;2023-04-24T10:25:40;7.60;;;4.95;;
57389;SDS011;43217;52.694;6.214;2023-04-24T10:28:05;10.93;;;3.85;;
57389;SDS011;43217;52.694;6.214;2023-04-24T10:30:34;9.02;;;4.28;;
57389;SDS011;43217;52.694;6.214;2023-04-24T10:33:04;8.60;;;4.53;;
57389;SDS011;43217;52.694;6.214;2023-04-24T10:35:32;9.95;;;4.53;;
57389;SDS011;43217;52.694;6.214;2023-04-24T10:38:02;9.23;;;5.10;;
57389;SDS011;43217;52.694;6.214;2023-04-24T10:40:34;8.90;;;4.13;;
57389;SDS011;43217;52.694;6.214;2023-04-24T10:43:04;12.00;;;4.60;;
57389;SDS011;43217;52.694;6.214;2023-04-24T10:45:33;10.23;;;4.35;;
57389;SDS011;43217;52.694;6.214;2023-04-24T10:48:03;9.10;;;3.70;;
57389;SDS011;43217;52.694;6.214;2023-04-24T10:53:07;8.52;;;3.72;;
57389;SDS011;43217;52.694;6.214;2023-04-24T10:55:45;8.45;;;3.08;;
57389;SDS011;43217;52.694;6.214;2023-04-24T10:58:12;9.30;;;3.47;;
57389;SDS011;43217;52.694;6.214;2023-04-24T11:00:40;6.43;;;2.58;;
57389;SDS011;43217;52.694;6.214;2023-04-24T11:03:12;7.50;;;2.80;;
57389;SDS011;43217;52.694;6.214;2023-04-24T11:05:55;7.97;;;2.70;;
57389;SDS011;43217;52.694;6.214;2023-04-24T11:13:23;5.28;;;2.40;;
57389;SDS011;43217;52.694;6.214;2023-04-24T11:16:11;5.95;;;2.20;;
57389;SDS011;43217;52.694;6.214;2023-04-24T11:18:39;4.50;;;2.28;;
57389;SDS011;43217;52.694;6.214;2023-04-24T11:21:17;7.45;;;2.80;;
57389;SDS011;43217;52.694;6.214;2023-04-24T11:23:44;5.45;;;2.47;;
57389;SDS011;43217;52.694;6.214;2023-04-24T11:28:43;6.80;;;2.63;;
57389;SDS011;43217;52.694;6.214;2023-04-24T11:34:13;6.22;;;2.83;;
57389;SDS011;43217;52.694;6.214;2023-04-24T11:36:43;6.05;;;2.45;;
57389;SDS011;43217;52.694;6.214;2023-04-24T11:39:15;9.00;;;2.78;;
57389;SDS011;43217;52.694;6.214;2023-04-24T11:41:40;5.82;;;2.67;;
57389;SDS011;43217;52.694;6.214;2023-04-24T11:44:08;9.30;;;2.80;;
57389;SDS011;43217;52.694;6.214;2023-04-24T11:46:34;4.57;;;2.00;;
57389;SDS011;43217;52.694;6.214;2023-04-24T11:49:00;4.35;;;1.92;;
57389;SDS011;43217;52.694;6.214;2023-04-24T11:51:26;5.55;;;1.70;;
57389;SDS011;43217;52.694;6.214;2023-04-24T11:53:52;5.38;;;1.83;;
57389;SDS011;43217;52.694;6.214;2023-04-24T11:56:19;3.47;;;1.40;;
57389;SDS011;43217;52.694;6.214;2023-04-24T11:58:47;2.22;;;1.60;;
57389;SDS011;43217;52.694;6.214;2023-04-24T12:01:13;5.15;;;1.80;;
57389;SDS011;43217;52.694;6.214;2023-04-24T12:03:39;6.32;;;1.83;;
57389;SDS011;43217;52.694;6.214;2023-04-24T12:06:08;3.10;;;1.60;;
57389;SDS011;43217;52.694;6.214;2023-04-24T12:11:02;4.25;;;1.67;;
57389;SDS011;43217;52.694;6.214;2023-04-24T12:13:34;4.57;;;1.83;;
57389;SDS011;43217;52.694;6.214;2023-04-24T12:16:04;4.57;;;1.55;;
57389;SDS011;43217;52.694;6.214;2023-04-24T12:18:30;4.45;;;1.77;;
57389;SDS011;43217;52.694;6.214;2023-04-24T12:21:18;6.07;;;1.83;;
57389;SDS011;43217;52.694;6.214;2023-04-24T12:23:47;3.17;;;1.50;;
57389;SDS011;43217;52.694;6.214;2023-04-24T12:26:17;4.25;;;1.77;;
57389;SDS011;43217;52.694;6.214;2023-04-24T12:28:46;2.65;;;1.20;;
57389;SDS011;43217;52.694;6.214;2023-04-24T12:31:15;4.03;;;1.40;;
57389;SDS011;43217;52.694;6.214;2023-04-24T12:33:41;3.40;;;1.38;;
57389;SDS011;43217;52.694;6.214;2023-04-24T12:36:11;6.25;;;1.60;;
57389;SDS011;43217;52.694;6.214;2023-04-24T12:38:37;6.85;;;1.80;;
57389;SDS011;43217;52.694;6.214;2023-04-24T12:41:14;6.38;;;2.08;;
57389;SDS011;43217;52.694;6.214;2023-04-24T12:43:53;4.97;;;1.38;;
57389;SDS011;43217;52.694;6.214;2023-04-24T12:46:21;4.30;;;1.63;;
57389;SDS011;43217;52.694;6.214;2023-04-24T12:48:47;5.22;;;1.65;;
57389;SDS011;43217;52.694;6.214;2023-04-24T12:51:12;5.40;;;1.67;;
57389;SDS011;43217;52.694;6.214;2023-04-24T12:53:38;6.45;;;1.80;;
57389;SDS011;43217;52.694;6.214;2023-04-24T12:56:04;5.28;;;1.67;;
57389;SDS011;43217;52.694;6.214;2023-04-24T12:58:29;7.25;;;1.70;;
57389;SDS011;43217;52.694;6.214;2023-04-24T13:00:55;5.60;;;2.00;;
57389;SDS011;43217;52.694;6.214;2023-04-24T13:03:21;6.30;;;1.60;;
57389;SDS011;43217;52.694;6.214;2023-04-24T13:05:47;4.32;;;1.45;;
57389;SDS011;43217;52.694;6.214;2023-04-24T13:08:13;5.18;;;1.23;;
57389;SDS011;43217;52.694;6.214;2023-04-24T13:10:38;3.88;;;1.08;;
57389;SDS011;43217;52.694;6.214;2023-04-24T13:13:05;1.63;;;0.88;;
57389;SDS011;43217;52.694;6.214;2023-04-24T13:15:30;3.40;;;1.00;;
57389;SDS011;43217;52.694;6.214;2023-04-24T13:17:56;3.40;;;0.90;;
57389;SDS011;43217;52.694;6.214;2023-04-24T13:20:22;3.53;;;1.10;;
57389;SDS011;43217;52.694;6.214;2023-04-24T13:22:47;1.77;;;1.00;;
57389;SDS011;43217;52.694;6.214;2023-04-24T13:25:13;3.38;;;1.40;;
57389;SDS011;43217;52.694;6.214;2023-04-24T13:27:41;3.90;;;1.40;;
57389;SDS011;43217;52.694;6.214;2023-04-24T13:30:07;5.25;;;1.17;;
57389;SDS011;43217;52.694;6.214;2023-04-24T13:32:33;4.22;;;1.30;;
57389;SDS011;43217;52.694;6.214;2023-04-24T13:35:00;5.15;;;1.45;;
57389;SDS011;43217;52.694;6.214;2023-04-24T13:37:25;4.22;;;1.45;;
57389;SDS011;43217;52.694;6.214;2023-04-24T13:39:51;4.88;;;1.70;;
57389;SDS011;43217;52.694;6.214;2023-04-24T13:42:17;5.15;;;1.70;;
57389;SDS011;43217;52.694;6.214;2023-04-24T13:44:43;8.75;;;1.80;;
57389;SDS011;43217;52.694;6.214;2023-04-24T13:47:10;5.93;;;2.28;;
57389;SDS011;43217;52.694;6.214;2023-04-24T13:49:36;5.27;;;2.30;;
57389;SDS011;43217;52.694;6.214;2023-04-24T13:52:01;7.63;;;2.17;;
57389;SDS011;43217;52.694;6.214;2023-04-24T13:54:27;9.48;;;2.33;;
57389;SDS011;43217;52.694;6.214;2023-04-24T13:56:55;6.25;;;2.38;;
57389;SDS011;43217;52.694;6.214;2023-04-24T13:59:22;6.75;;;2.10;;
57389;SDS011;43217;52.694;6.214;2023-04-24T14:01:49;5.18;;;2.47;;
57389;SDS011;43217;52.694;6.214;2023-04-24T14:04:14;6.95;;;2.78;;
57389;SDS011;43217;52.694;6.214;2023-04-24T14:06:40;6.15;;;2.45;;
57389;SDS011;43217;52.694;6.214;2023-04-24T14:09:06;8.40;;;2.80;;
57389;SDS011;43217;52.694;6.214;2023-04-24T14:11:33;12.65;;;2.85;;
57389;SDS011;43217;52.694;6.214;2023-04-24T14:13:58;11.73;;;2.78;;
57389;SDS011;43217;52.694;6.214;2023-04-24T14:16:24;9.93;;;3.20;;
57389;SDS011;43217;52.694;6.214;2023-04-24T14:18:50;8.52;;;3.03;;
57389;SDS011;43217;52.694;6.214;2023-04-24T14:21:15;11.70;;;3.38;;
57389;SDS011;43217;52.694;6.214;2023-04-24T14:23:41;9.73;;;3.03;;
57389;SDS011;43217;52.694;6.214;2023-04-24T14:26:07;11.75;;;2.90;;
57389;SDS011;43217;52.694;6.214;2023-04-24T14:28:32;9.60;;;3.15;;
57389;SDS011;43217;52.694;6.214;2023-04-24T14:30:59;6.05;;;2.78;;
57389;SDS011;43217;52.694;6.214;2023-04-24T14:33:24;11.80;;;2.83;;
57389;SDS011;43217;52.694;6.214;2023-04-24T14:35:50;10.15;;;3.22;;
57389;SDS011;43217;52.694;6.214;2023-04-24T14:38:16;12.07;;;3.00;;
57389;SDS011;43217;52.694;6.214;2023-04-24T14:40:42;11.10;;;3.75;;
57389;SDS011;43217;52.694;6.214;2023-04-24T14:43:07;8.23;;;2.78;;
57389;SDS011;43217;52.694;6.214;2023-04-24T14:45:33;9.77;;;2.72;;
57389;SDS011;43217;52.694;6.214;2023-04-24T14:47:59;9.45;;;2.85;;
57389;SDS011;43217;52.694;6.214;2023-04-24T14:50:24;8.48;;;3.10;;
57389;SDS011;43217;52.694;6.214;2023-04-24T14:52:53;10.07;;;2.67;;
57389;SDS011;43217;52.694;6.214;2023-04-24T14:55:22;7.07;;;2.78;;
57389;SDS011;43217;52.694;6.214;2023-04-24T14:57:48;10.63;;;3.42;;
57389;SDS011;43217;52.694;6.214;2023-04-24T15:00:14;9.18;;;3.67;;
57389;SDS011;43217;52.694;6.214;2023-04-24T15:02:41;9.05;;;3.35;;
57389;SDS011;43217;52.694;6.214;2023-04-24T15:05:09;6.80;;;2.80;;
57389;SDS011;43217;52.694;6.214;2023-04-24T15:07:35;9.75;;;3.10;;
57389;SDS011;43217;52.694;6.214;2023-04-24T15:10:01;9.57;;;3.08;;
57389;SDS011;43217;52.694;6.214;2023-04-24T15:12:28;5.93;;;2.50;;
57389;SDS011;43217;52.694;6.214;2023-04-24T15:14:54;7.70;;;2.92;;
57389;SDS011;43217;52.694;6.214;2023-04-24T15:17:20;8.98;;;3.22;;
57389;SDS011;43217;52.694;6.214;2023-04-24T15:19:45;9.23;;;3.42;;
57389;SDS011;43217;52.694;6.214;2023-04-24T15:22:11;8.40;;;2.80;;
57389;SDS011;43217;52.694;6.214;2023-04-24T15:24:38;9.68;;;3.03;;
57389;SDS011;43217;52.694;6.214;2023-04-24T15:27:03;9.90;;;3.38;;